createdAt,value
2023-04-27T00:00:08.587Z,520.40
2023-04-27T00:00:19.589Z,520.40
2023-04-27T00:00:30.576Z,520.39
2023-04-27T00:00:41.580Z,520.40
2023-04-27T00:00:52.560Z,520.40
2023-04-27T00:01:03.561Z,520.40
2023-04-27T00:01:15.594Z,520.42
2023-04-27T00:01:26.590Z,520.41
2023-04-27T00:01:37.597Z,520.41
2023-04-27T00:01:49.616Z,520.41
2023-04-27T00:02:01.594Z,520.42
2023-04-27T00:02:13.666Z,520.41
2023-04-27T00:02:24.611Z,520.43
2023-04-27T00:02:36.713Z,520.43
2023-04-27T00:02:47.684Z,520.40
2023-04-27T00:02:58.733Z,520.44
2023-04-27T00:03:09.828Z,520.39
2023-04-27T00:03:20.731Z,520.39
2023-04-27T00:03:31.599Z,520.42
2023-04-27T00:03:42.779Z,520.43
2023-04-27T00:03:54.688Z,520.41
2023-04-27T00:04:05.722Z,520.42
2023-04-27T00:04:17.932Z,520.39
2023-04-27T00:04:29.760Z,520.43
2023-04-27T00:04:40.757Z,520.43
2023-04-27T00:04:51.870Z,520.45
2023-04-27T00:05:02.728Z,520.47
2023-04-27T00:05:13.789Z,520.49
2023-04-27T00:05:24.631Z,520.47
2023-04-27T00:05:35.627Z,520.48
2023-04-27T00:05:46.637Z,520.53
2023-04-27T00:05:57.696Z,520.52
2023-04-27T00:06:08.624Z,520.50
2023-04-27T00:06:19.580Z,520.52
2023-04-27T00:06:30.568Z,520.57
2023-04-27T00:06:41.591Z,520.55
2023-04-27T00:06:52.597Z,520.57
2023-04-27T00:07:04.572Z,520.62
2023-04-27T00:07:15.551Z,520.58
2023-04-27T00:07:26.577Z,520.61
2023-04-27T00:07:37.581Z,520.60
2023-04-27T00:07:48.578Z,520.60
2023-04-27T00:08:00.597Z,520.65
2023-04-27T00:08:11.693Z,520.65
2023-04-27T00:08:22.570Z,520.65
2023-04-27T00:08:33.577Z,520.66
2023-04-27T00:08:44.576Z,520.65
2023-04-27T00:08:55.611Z,520.68
2023-04-27T00:10:34.600Z,520.68
2023-04-27T00:10:46.586Z,520.73
2023-04-27T00:10:57.584Z,520.72
2023-04-27T00:11:09.554Z,520.72
2023-04-27T00:11:20.570Z,520.72
2023-04-27T00:11:31.582Z,520.73
2023-04-27T00:11:42.572Z,520.75
2023-04-27T00:11:53.563Z,520.75
2023-04-27T00:12:04.562Z,520.74
2023-04-27T00:12:16.577Z,520.74
2023-04-27T00:12:27.573Z,520.75
2023-04-27T00:12:38.577Z,520.76
2023-04-27T00:12:49.584Z,520.77
2023-04-27T00:13:00.588Z,520.77
2023-04-27T00:13:11.631Z,520.78
2023-04-27T00:18:45.561Z,520.48
2023-04-27T00:18:56.549Z,520.51
2023-04-27T00:19:07.524Z,520.54
2023-04-27T00:19:18.617Z,520.54
2023-04-27T00:19:30.611Z,520.54
2023-04-27T00:19:41.554Z,520.53
2023-04-27T00:19:52.573Z,520.57
2023-04-27T00:20:03.558Z,520.55
2023-04-27T00:20:14.570Z,520.56
2023-04-27T00:20:25.580Z,520.53
2023-04-27T00:20:36.572Z,520.55
2023-04-27T00:20:47.586Z,520.54
2023-04-27T00:20:59.576Z,520.56
2023-04-27T00:21:10.571Z,520.54
2023-04-27T00:21:21.591Z,520.52
2023-04-27T00:21:33.570Z,520.53
2023-04-27T00:21:44.561Z,520.53
2023-04-27T00:21:55.549Z,520.54
2023-04-27T00:22:06.552Z,520.53
2023-04-27T00:22:17.552Z,520.54
2023-04-27T00:22:28.541Z,520.54
2023-04-27T00:22:39.623Z,520.57
2023-04-27T00:22:51.601Z,520.55
2023-04-27T00:23:03.565Z,520.52
2023-04-27T00:23:14.566Z,520.55
2023-04-27T00:23:25.600Z,520.52
2023-04-27T00:23:37.563Z,520.53
2023-04-27T00:23:48.572Z,520.52
2023-04-27T00:23:59.564Z,520.52
2023-04-27T00:24:10.564Z,520.52
2023-04-27T00:24:21.552Z,520.53
2023-04-27T00:24:32.541Z,520.49
2023-04-27T00:24:43.548Z,520.55
2023-04-27T00:24:54.555Z,520.51
2023-04-27T00:25:05.543Z,520.51
2023-04-27T00:25:16.529Z,520.49
2023-04-27T00:25:27.643Z,520.51
2023-04-27T00:25:39.606Z,520.51
2023-04-27T00:25:51.584Z,520.52
2023-04-27T00:26:02.579Z,520.52
2023-04-27T00:26:13.580Z,520.52
2023-04-27T00:26:25.556Z,520.52
2023-04-27T00:26:36.545Z,520.54
2023-04-27T00:26:47.524Z,520.56
2023-04-27T00:26:58.604Z,520.58
2023-04-27T00:27:10.608Z,520.58
2023-04-27T00:27:22.627Z,520.59
2023-04-27T00:27:34.591Z,520.61
2023-04-27T00:27:45.585Z,520.58
2023-04-27T00:27:56.594Z,520.60
2023-04-27T00:28:07.590Z,520.61
2023-04-27T00:28:19.573Z,520.61
2023-04-27T00:28:31.584Z,520.60
2023-04-27T00:28:42.587Z,520.61
2023-04-27T00:28:53.568Z,520.60
2023-04-27T00:29:05.584Z,520.60
2023-04-27T00:29:16.608Z,520.61
2023-04-27T00:29:28.559Z,520.60
2023-04-27T00:29:39.567Z,520.59
2023-04-27T00:29:50.546Z,520.58
2023-04-27T00:30:01.553Z,520.56
2023-04-27T00:30:12.569Z,520.56
2023-04-27T00:30:23.564Z,520.54
2023-04-27T00:30:34.550Z,520.53
2023-04-27T00:30:45.552Z,520.54
2023-04-27T00:30:56.548Z,520.53
2023-04-27T00:31:07.537Z,520.50
2023-04-27T00:31:18.580Z,520.49
2023-04-27T00:31:29.620Z,520.50
2023-04-27T00:31:41.646Z,520.48
2023-04-27T00:31:52.604Z,520.44
2023-04-27T00:32:03.788Z,520.43
2023-04-27T00:32:14.730Z,520.42
2023-04-27T00:32:26.758Z,520.43
2023-04-27T00:32:38.770Z,520.42
2023-04-27T00:32:49.822Z,520.43
2023-04-27T00:33:01.806Z,520.46
2023-04-27T00:33:13.792Z,520.45
2023-04-27T00:35:16.597Z,520.39
2023-04-27T00:35:28.574Z,520.38
2023-04-27T00:35:39.562Z,520.39
2023-04-27T00:35:50.570Z,520.38
2023-04-27T00:36:01.584Z,520.38
2023-04-27T00:36:12.581Z,520.37
2023-04-27T00:36:23.560Z,520.36
2023-04-27T00:36:34.572Z,520.40
2023-04-27T00:36:46.561Z,520.39
2023-04-27T00:36:57.593Z,520.41
2023-04-27T00:37:08.588Z,520.40
2023-04-27T00:37:19.580Z,520.43
2023-04-27T00:37:30.566Z,520.43
2023-04-27T00:37:41.665Z,520.46
2023-04-27T00:37:52.565Z,520.46
2023-04-27T00:38:03.548Z,520.47
2023-04-27T00:38:14.822Z,520.44
2023-04-27T00:38:26.774Z,520.46
2023-04-27T01:16:27.783Z,519.92
2023-04-27T01:16:39.767Z,519.95
2023-04-27T01:16:51.800Z,519.94
2023-04-27T01:17:02.823Z,519.93
2023-04-27T01:17:13.714Z,519.93
2023-04-27T01:17:24.725Z,519.95
2023-04-27T01:17:35.764Z,519.89
2023-04-27T01:17:46.772Z,519.90
2023-04-27T01:17:58.770Z,519.91
2023-04-27T01:18:10.767Z,519.93
2023-04-27T01:18:22.753Z,519.94
2023-04-27T01:18:33.748Z,519.94
2023-04-27T01:18:45.783Z,519.95
2023-04-27T01:18:57.733Z,519.95
2023-04-27T01:55:49.773Z,518.67
2023-04-27T01:56:01.780Z,518.65
2023-04-27T01:56:13.783Z,518.67
2023-04-27T01:56:25.769Z,518.68
2023-04-27T01:56:37.745Z,518.67
2023-04-27T01:56:48.732Z,518.69
2023-04-27T01:56:59.722Z,518.72
2023-04-27T02:21:23.756Z,516.72
2023-04-27T02:21:34.750Z,516.73
2023-04-27T02:21:45.752Z,516.74
2023-04-27T02:21:56.730Z,516.72
2023-04-27T02:22:07.708Z,516.70
2023-04-27T02:22:18.795Z,516.64
2023-04-27T02:22:30.763Z,516.61
2023-04-27T02:22:41.774Z,516.57
2023-04-27T02:22:52.753Z,516.54
2023-04-27T02:23:03.765Z,516.50
2023-04-27T02:23:14.785Z,516.47
2023-04-27T02:23:26.735Z,516.44
2023-04-27T02:23:37.749Z,516.42
2023-04-27T02:23:48.737Z,516.41
2023-04-27T02:23:59.741Z,516.39
2023-04-27T02:24:10.746Z,516.34
2023-04-27T02:24:21.742Z,516.32
2023-04-27T02:24:32.737Z,516.31
2023-04-27T02:24:43.740Z,516.32
2023-04-27T02:24:55.720Z,516.29
2023-04-27T02:25:06.726Z,516.28
2023-04-27T02:25:17.719Z,516.26
2023-04-27T02:25:28.727Z,516.26
2023-04-27T02:25:39.792Z,516.25
2023-04-27T02:25:51.764Z,516.23
2023-04-27T02:26:03.754Z,516.20
2023-04-27T02:26:14.744Z,516.18
2023-04-27T02:26:25.750Z,516.18
2023-04-27T02:26:36.753Z,516.16
2023-04-27T02:26:47.729Z,516.16
2023-04-27T02:26:58.705Z,516.16
2023-04-27T02:27:09.793Z,516.16
2023-04-27T02:27:21.761Z,516.14
2023-04-27T02:27:32.742Z,516.16
2023-04-27T02:27:43.721Z,516.18
2023-04-27T02:27:54.717Z,516.20
2023-04-27T02:28:05.748Z,516.20
2023-04-27T02:28:17.786Z,516.21
2023-04-27T02:28:28.743Z,516.23
2023-04-27T02:28:40.736Z,516.24
2023-04-27T02:28:51.713Z,516.24
2023-04-27T02:29:02.776Z,516.19
2023-04-27T02:29:14.954Z,516.22
2023-04-27T02:29:25.748Z,516.19
2023-04-27T02:29:36.717Z,516.16
2023-04-27T02:29:47.750Z,516.15
2023-04-27T02:29:58.753Z,516.14
2023-04-27T02:30:10.840Z,516.09
2023-04-27T02:30:21.759Z,516.04
2023-04-27T02:30:33.773Z,516.03
2023-04-27T02:30:44.760Z,515.96
2023-04-27T02:30:55.745Z,515.91
2023-04-27T02:31:06.734Z,515.87
2023-04-27T02:31:17.765Z,515.84
2023-04-27T02:31:28.790Z,515.81
2023-04-27T02:31:40.796Z,515.76
2023-04-27T02:31:51.759Z,515.75
2023-04-27T02:32:02.837Z,515.71
2023-04-27T02:32:13.751Z,515.69
2023-04-27T02:32:24.807Z,515.66
2023-04-27T02:32:35.792Z,515.63
2023-04-27T02:32:46.819Z,515.63
2023-04-27T02:32:57.752Z,515.62
2023-04-27T02:33:08.773Z,515.59
2023-04-27T02:33:19.800Z,515.56
2023-04-27T02:33:31.791Z,515.55
2023-04-27T02:33:43.747Z,515.53
2023-04-27T02:33:55.725Z,515.53
2023-04-27T02:34:06.736Z,515.51
2023-04-27T02:34:17.734Z,515.51
2023-04-27T02:34:28.739Z,515.47
2023-04-27T02:34:39.739Z,515.47
2023-04-27T02:34:50.733Z,515.45
2023-04-27T02:35:02.627Z,515.44
2023-04-27T02:35:12.753Z,515.45
2023-04-27T02:35:23.740Z,515.40
2023-04-27T02:35:34.729Z,515.41
2023-04-27T02:35:46.721Z,515.42
2023-04-27T02:35:57.728Z,515.42
2023-04-27T02:36:08.720Z,515.39
2023-04-27T02:36:19.709Z,515.39
2023-04-27T02:36:30.716Z,515.38
2023-04-27T02:36:41.697Z,515.40
2023-04-27T02:36:52.734Z,515.38
2023-04-27T02:37:03.739Z,515.39
2023-04-27T02:37:14.741Z,515.39
2023-04-27T02:37:25.746Z,515.40
2023-04-27T02:37:37.746Z,515.40
2023-04-27T02:37:48.755Z,515.38
2023-04-27T02:37:59.774Z,515.41
2023-04-27T02:38:10.764Z,515.40
2023-04-27T02:38:21.761Z,515.37
2023-04-27T02:38:32.754Z,515.37
2023-04-27T02:38:43.754Z,515.36
2023-04-27T02:38:54.755Z,515.36
2023-04-27T02:39:05.750Z,515.35
2023-04-27T02:39:16.767Z,515.33
2023-04-27T02:39:28.720Z,515.33
2023-04-27T02:39:39.714Z,515.35
2023-04-27T02:39:50.732Z,515.33
2023-04-27T02:40:01.755Z,515.31
2023-04-27T02:40:12.755Z,515.30
2023-04-27T02:40:24.734Z,515.32
2023-04-27T02:40:35.731Z,515.32
2023-04-27T02:40:46.758Z,515.30
2023-04-27T02:40:58.734Z,515.28
2023-04-27T02:41:09.745Z,515.28
2023-04-27T02:41:20.733Z,515.24
2023-04-27T02:41:31.731Z,515.22
2023-04-27T02:41:42.718Z,515.21
2023-04-27T02:41:53.715Z,515.18
2023-04-27T02:42:04.715Z,515.16
2023-04-27T02:42:15.735Z,515.15
2023-04-27T02:42:26.737Z,515.11
2023-04-27T02:42:37.737Z,515.11
2023-04-27T02:42:48.715Z,515.07
2023-04-27T02:42:59.705Z,515.05
2023-04-27T02:43:10.707Z,515.05
2023-04-27T02:43:21.702Z,515.03
2023-04-27T02:43:32.708Z,515.02
2023-04-27T02:43:43.814Z,515.01
2023-04-27T02:43:55.812Z,514.99
2023-04-27T02:44:07.817Z,514.98
2023-04-27T02:44:18.755Z,514.96
2023-04-27T02:44:30.742Z,514.95
2023-04-27T02:44:42.746Z,514.93
2023-04-27T02:44:53.758Z,514.91
2023-04-27T02:45:05.739Z,514.91
2023-04-27T02:45:16.745Z,514.90
2023-04-27T02:45:27.752Z,514.90
2023-04-27T02:45:38.757Z,514.88
2023-04-27T02:45:49.757Z,514.89
2023-04-27T02:46:00.751Z,514.90
2023-04-27T02:46:11.745Z,514.89
2023-04-27T02:46:22.790Z,514.89
2023-04-27T02:46:34.808Z,514.91
2023-04-27T02:46:45.786Z,514.92
2023-04-27T02:46:56.817Z,514.96
2023-04-27T02:47:08.752Z,514.98
2023-04-27T02:47:20.726Z,515.02
2023-04-27T02:47:31.789Z,515.06
2023-04-27T02:47:42.747Z,515.08
2023-04-27T02:47:53.746Z,515.11
2023-04-27T02:48:04.789Z,515.14
2023-04-27T02:48:15.719Z,515.18
2023-04-27T02:48:26.726Z,515.22
2023-04-27T02:48:37.729Z,515.22
2023-04-27T02:48:48.730Z,515.25
2023-04-27T02:48:59.733Z,515.30
2023-04-27T02:49:10.752Z,515.30
2023-04-27T02:49:21.741Z,515.34
2023-04-27T02:49:32.742Z,515.36
2023-04-27T02:49:43.742Z,515.38
2023-04-27T02:49:54.728Z,515.38
2023-04-27T02:50:06.730Z,515.41
2023-04-27T02:50:17.711Z,515.42
2023-04-27T02:50:28.723Z,515.46
2023-04-27T02:50:39.748Z,515.46
2023-04-27T02:50:50.752Z,515.47
2023-04-27T02:51:01.750Z,515.47
2023-04-27T02:51:12.744Z,515.46
2023-04-27T02:51:23.735Z,515.48
2023-04-27T02:51:34.724Z,515.48
2023-04-27T02:51:45.713Z,515.46
2023-04-27T02:51:56.743Z,515.48
2023-04-27T02:56:54.560Z,515.39
2023-04-27T02:57:06.522Z,515.45
2023-04-27T02:57:17.524Z,515.44
2023-04-27T02:57:28.505Z,515.46
2023-04-27T02:57:39.499Z,515.47
2023-04-27T02:57:50.511Z,515.49
2023-04-27T02:58:01.515Z,515.49
2023-04-27T02:58:13.506Z,515.47
2023-04-27T02:58:24.505Z,515.45
2023-04-27T02:58:35.505Z,515.45
2023-04-27T02:58:46.504Z,515.46
2023-04-27T02:58:57.501Z,515.43
2023-04-27T02:59:08.511Z,515.41
2023-04-27T02:59:19.494Z,515.40
2023-04-27T02:59:30.574Z,515.39
2023-04-27T02:59:42.518Z,515.40
2023-04-27T02:59:53.497Z,515.36
2023-04-27T03:00:04.510Z,515.33
2023-04-27T03:00:15.515Z,515.29
2023-04-27T03:00:26.511Z,515.25
2023-04-27T03:00:37.505Z,515.20
2023-04-27T03:00:49.082Z,515.18
2023-04-27T03:00:59.517Z,515.14
2023-04-27T03:01:10.532Z,515.13
2023-04-27T03:01:22.567Z,515.08
2023-04-27T03:01:34.526Z,515.02
2023-04-27T03:01:46.620Z,515.01
2023-04-27T03:01:58.525Z,514.99
2023-04-27T03:02:09.527Z,514.96
2023-04-27T03:02:20.621Z,514.95
2023-04-27T03:02:31.585Z,514.94
2023-04-27T03:02:42.685Z,514.94
2023-04-27T03:02:53.580Z,514.92
2023-04-27T03:03:04.619Z,514.91
2023-04-27T03:03:15.685Z,514.89
2023-04-27T03:03:26.780Z,514.88
2023-04-27T03:03:38.621Z,514.85
2023-04-27T03:03:49.592Z,514.83
2023-04-27T03:04:00.875Z,514.81
2023-04-27T03:04:12.686Z,514.77
2023-04-27T03:04:23.608Z,514.75
2023-04-27T03:04:35.533Z,514.71
2023-04-27T03:04:46.508Z,514.69
2023-04-27T03:04:57.553Z,514.68
2023-04-27T03:05:09.510Z,514.66
2023-04-27T03:05:20.533Z,514.65
2023-04-27T03:05:32.555Z,514.66
2023-04-27T03:05:44.542Z,514.65
2023-04-27T03:05:56.548Z,514.64
2023-04-27T03:06:08.499Z,514.65
2023-04-27T03:06:19.485Z,514.64
2023-04-27T03:06:30.478Z,514.64
2023-04-27T03:06:41.520Z,514.66
2023-04-27T03:06:52.533Z,514.64
2023-04-27T03:07:03.536Z,514.63
2023-04-27T03:07:15.498Z,514.60
2023-04-27T03:07:26.507Z,514.59
2023-04-27T03:17:33.603Z,514.09
2023-04-27T03:17:45.516Z,514.10
2023-04-27T03:17:56.576Z,514.09
2023-04-27T03:18:07.512Z,514.05
2023-04-27T03:18:18.505Z,514.07
2023-04-27T03:18:29.503Z,514.04
2023-04-27T03:18:40.489Z,514.08
2023-04-27T03:18:51.519Z,514.06
2023-04-27T03:35:54.619Z,514.72
2023-04-27T03:36:05.727Z,514.80
2023-04-27T03:36:16.672Z,514.81
2023-04-27T03:36:28.670Z,514.83
2023-04-27T03:36:40.615Z,514.87
2023-04-27T03:36:51.663Z,514.92
2023-04-27T03:37:03.615Z,514.94
2023-04-27T03:37:14.692Z,514.98
2023-04-27T03:37:26.650Z,514.99
2023-04-27T03:37:37.600Z,515.01
2023-04-27T03:37:48.649Z,515.04
2023-04-27T03:38:00.614Z,515.03
2023-04-27T03:38:11.664Z,515.02
2023-04-27T03:38:23.653Z,515.04
2023-04-27T03:38:35.621Z,515.03
2023-04-27T03:38:46.687Z,515.00
2023-04-27T03:38:58.686Z,515.00
2023-04-27T03:39:10.661Z,514.98
2023-04-27T03:39:22.624Z,514.98
2023-04-27T03:39:33.678Z,515.01
2023-04-27T03:39:45.629Z,514.98
2023-04-27T03:39:56.649Z,515.01
2023-04-27T03:40:08.626Z,515.02
2023-04-27T03:40:19.701Z,515.01
2023-04-27T03:40:31.659Z,515.02
2023-04-27T03:40:43.623Z,515.02
2023-04-27T03:40:54.679Z,514.98
2023-04-27T03:41:06.633Z,514.98
2023-04-27T03:41:18.655Z,514.98
2023-04-27T03:41:29.609Z,514.98
2023-04-27T03:41:40.600Z,514.95
2023-04-27T03:41:51.653Z,514.96
2023-04-27T03:42:02.600Z,514.95
2023-04-27T03:42:13.651Z,514.94
2023-04-27T03:42:24.691Z,514.93
2023-04-27T03:42:36.643Z,514.91
2023-04-27T03:42:48.622Z,514.86
2023-04-27T03:42:59.658Z,514.87
2023-04-27T03:43:11.608Z,514.85
2023-04-27T03:43:22.673Z,514.83
2023-04-27T03:43:34.631Z,514.84
2023-04-27T03:43:45.674Z,514.87
2023-04-27T03:43:57.616Z,514.84
2023-04-27T03:44:08.657Z,514.85
2023-04-27T03:44:19.669Z,514.86
2023-04-27T03:44:31.625Z,514.86
2023-04-27T03:44:42.674Z,514.85
2023-04-27T03:44:54.630Z,514.85
2023-04-27T03:45:05.691Z,514.83
2023-04-27T03:45:17.672Z,514.81
2023-04-27T03:45:29.640Z,514.78
2023-04-27T03:45:41.709Z,514.79
2023-04-27T03:45:52.833Z,514.78
2023-04-27T03:46:04.653Z,514.77
2023-04-27T03:46:16.652Z,514.74
2023-04-27T03:46:28.748Z,514.72
2023-04-27T03:46:39.671Z,514.71
2023-04-27T03:46:51.654Z,514.73
2023-04-27T03:47:02.660Z,514.70
2023-04-27T03:47:14.615Z,514.74
2023-04-27T03:47:25.698Z,514.72
2023-04-27T03:47:37.709Z,514.75
2023-04-27T03:47:48.731Z,514.75
2023-04-27T03:47:59.684Z,514.78
2023-04-27T03:48:10.683Z,514.81
2023-04-27T03:48:22.628Z,514.82
2023-04-27T03:48:34.624Z,514.83
2023-04-27T03:48:45.678Z,514.85
2023-04-27T03:48:57.647Z,514.85
2023-04-27T03:57:41.379Z,514.43
2023-04-27T03:57:52.436Z,514.47
2023-04-27T03:58:04.419Z,514.52
2023-04-27T03:58:16.382Z,514.52
2023-04-27T03:58:27.432Z,514.53
2023-04-27T03:58:39.415Z,514.53
2023-04-27T03:58:51.384Z,514.56
2023-04-27T03:59:02.454Z,514.56
2023-04-27T03:59:14.748Z,514.59
2023-04-27T03:59:26.385Z,514.59
2023-04-27T03:59:37.437Z,514.61
2023-04-27T03:59:49.429Z,514.67
2023-04-27T04:00:01.385Z,514.65
2023-04-27T04:00:13.393Z,514.67
2023-04-27T04:00:24.349Z,514.71
2023-04-27T04:00:35.412Z,514.73
2023-04-27T04:00:46.670Z,514.75
2023-04-27T04:00:58.638Z,514.76
2023-04-27T04:01:09.589Z,514.78
2023-04-27T04:01:20.640Z,514.78
2023-04-27T04:01:31.601Z,514.78
2023-04-27T04:01:42.683Z,514.78
2023-04-27T04:01:54.701Z,514.77
2023-04-27T04:02:05.766Z,514.75
2023-04-27T04:02:17.746Z,514.70
2023-04-27T04:02:29.823Z,514.68
2023-04-27T04:02:41.738Z,514.64
2023-04-27T04:02:53.736Z,514.61
2023-04-27T04:03:05.784Z,514.59
2023-04-27T04:03:17.945Z,514.55
2023-04-27T04:03:28.894Z,514.55
2023-04-27T04:03:40.803Z,514.48
2023-04-27T04:03:52.786Z,514.49
2023-04-27T04:04:03.633Z,514.45
2023-04-27T04:04:14.702Z,514.43
2023-04-27T04:04:26.772Z,514.41
2023-04-27T04:04:37.788Z,514.41
2023-04-27T04:04:49.731Z,514.39
2023-04-27T04:05:01.671Z,514.38
2023-04-27T04:05:13.735Z,514.39
2023-04-27T04:05:25.626Z,514.38
2023-04-27T04:05:36.681Z,514.38
2023-04-27T04:05:48.633Z,514.40
2023-04-27T04:05:59.688Z,514.41
2023-04-27T04:06:11.650Z,514.43
2023-04-27T04:06:23.629Z,514.43
2023-04-27T04:06:34.590Z,514.44
2023-04-27T04:06:45.682Z,514.47
2023-04-27T04:06:57.650Z,514.46
2023-04-27T04:07:08.598Z,514.44
2023-04-27T04:07:19.674Z,514.44
2023-04-27T04:07:31.650Z,514.44
2023-04-27T04:07:43.617Z,514.44
2023-04-27T04:07:54.691Z,514.43
2023-04-27T04:08:06.669Z,514.41
2023-04-27T04:08:18.634Z,514.40
2023-04-27T04:08:29.684Z,514.39
2023-04-27T04:08:41.657Z,514.38
2023-04-27T04:08:53.622Z,514.35
2023-04-27T04:09:04.665Z,514.32
2023-04-27T04:09:15.884Z,514.29
2023-04-27T04:09:26.616Z,514.29
2023-04-27T04:09:37.658Z,514.26
2023-04-27T04:09:48.697Z,514.23
2023-04-27T04:10:00.685Z,514.21
2023-04-27T04:20:08.381Z,513.98
2023-04-27T04:20:19.451Z,514.00
2023-04-27T04:20:31.417Z,514.04
2023-04-27T04:20:43.383Z,514.04
2023-04-27T04:20:54.429Z,514.06
2023-04-27T04:21:06.435Z,514.08
2023-04-27T04:21:18.408Z,514.10
2023-04-27T04:21:30.388Z,514.14
2023-04-27T04:21:41.344Z,514.16
2023-04-27T04:21:52.380Z,514.18
2023-04-27T04:22:04.397Z,514.25
2023-04-27T04:22:16.364Z,514.24
2023-04-27T04:22:27.410Z,514.26
2023-04-27T04:22:39.381Z,514.30
2023-04-27T04:22:50.435Z,514.33
2023-04-27T04:23:02.401Z,514.33
2023-04-27T04:23:14.396Z,514.34
2023-04-27T04:23:26.366Z,514.35
2023-04-27T04:23:37.431Z,514.39
2023-04-27T04:23:49.424Z,514.38
2023-04-27T04:24:01.389Z,514.39
2023-04-27T04:24:12.344Z,514.40
2023-04-27T04:24:23.400Z,514.36
2023-04-27T04:24:35.378Z,514.24
2023-04-27T04:24:46.431Z,514.34
2023-04-27T04:24:58.404Z,514.34
2023-04-27T04:25:10.371Z,514.32
2023-04-27T04:25:21.435Z,514.29
2023-04-27T04:25:33.393Z,514.28
2023-04-27T04:25:44.339Z,514.27
2023-04-27T04:25:55.391Z,514.25
2023-04-27T04:26:06.653Z,514.24
2023-04-27T04:26:17.657Z,514.24
2023-04-27T04:26:29.617Z,514.23
2023-04-27T04:26:40.664Z,514.25
2023-04-27T04:26:52.659Z,514.21
2023-04-27T04:27:04.643Z,514.25
2023-04-27T04:27:15.597Z,514.26
2023-04-27T04:27:26.656Z,514.23
2023-04-27T04:27:38.633Z,514.22
2023-04-27T04:27:49.698Z,514.20
2023-04-27T04:28:00.594Z,514.15
2023-04-27T04:28:11.654Z,514.12
2023-04-27T04:28:23.658Z,513.98
2023-04-27T04:28:35.621Z,514.09
2023-04-27T04:28:46.690Z,514.07
2023-04-27T04:28:58.665Z,514.03
2023-04-27T04:29:11.358Z,514.02
2023-04-27T04:29:21.652Z,514.00
2023-04-27T04:29:33.625Z,513.99
2023-04-27T04:29:44.680Z,514.00
2023-04-27T04:29:56.648Z,513.97
2023-04-27T04:30:08.613Z,513.94
2023-04-27T04:30:19.668Z,513.89
2023-04-27T04:30:31.626Z,513.90
2023-04-27T04:30:42.669Z,513.88
2023-04-27T04:30:54.763Z,513.88
2023-04-27T04:31:05.746Z,513.83
2023-04-27T04:31:17.694Z,513.83
2023-04-27T04:31:28.736Z,513.82
2023-04-27T04:46:36.719Z,513.90
2023-04-27T04:46:47.696Z,513.94
2023-04-27T04:46:59.672Z,513.95
2023-04-27T04:47:10.648Z,513.95
2023-04-27T04:47:22.662Z,513.96
2023-04-27T04:47:33.640Z,513.95
2023-04-27T04:47:45.645Z,513.98
2023-04-27T04:47:57.662Z,513.98
2023-04-27T04:48:08.665Z,513.98
2023-04-27T04:48:19.677Z,514.01
2023-04-27T04:48:31.686Z,514.00
2023-04-27T04:51:55.667Z,514.11
2023-04-27T04:52:07.633Z,514.15
2023-04-27T04:52:18.675Z,514.11
2023-04-27T04:52:30.654Z,514.14
2023-04-27T05:04:25.544Z,513.38
2023-04-27T05:11:04.632Z,513.17
2023-04-27T05:11:15.679Z,513.19
2023-04-27T05:17:55.623Z,512.45
2023-04-27T05:18:06.750Z,512.47
2023-04-27T05:21:19.353Z,511.84
2023-04-27T05:21:30.415Z,511.87
2023-04-27T05:22:54.405Z,511.94
2023-04-27T05:26:14.383Z,511.41
2023-04-27T05:26:26.352Z,511.40
2023-04-27T05:28:36.638Z,510.83
2023-04-27T05:28:47.596Z,510.73
2023-04-27T05:30:34.356Z,510.54
2023-04-27T05:47:50.450Z,509.85
2023-04-27T05:48:02.385Z,509.59
2023-04-27T05:48:14.362Z,509.59
2023-04-27T07:36:26.641Z,506.67
2023-04-27T07:36:37.611Z,506.72
2023-04-27T07:36:48.684Z,506.76
2023-04-27T07:37:00.650Z,506.82
2023-04-27T07:37:12.620Z,506.57
2023-04-27T07:37:23.665Z,506.84
2023-04-27T07:37:34.687Z,506.82
2023-04-27T07:37:46.648Z,506.86
2023-04-27T07:37:58.619Z,506.87
2023-04-27T07:38:09.590Z,506.88
2023-04-27T07:38:20.645Z,506.68
2023-04-27T07:38:31.685Z,506.89
2023-04-27T07:38:43.663Z,506.85
2023-04-27T07:38:55.636Z,506.83
2023-04-27T07:39:06.599Z,506.85
2023-04-27T07:39:17.657Z,506.82
2023-04-27T07:39:29.626Z,506.83
2023-04-27T07:39:40.677Z,506.87
2023-04-27T07:39:52.640Z,506.87
2023-04-27T07:40:03.591Z,506.88
2023-04-27T07:40:14.656Z,506.86
2023-04-27T07:40:26.642Z,506.82
2023-04-27T07:40:37.666Z,506.85
2023-04-27T07:40:48.681Z,506.83
2023-04-27T07:41:00.653Z,506.88
2023-04-27T07:41:12.648Z,506.88
2023-04-27T07:41:23.627Z,506.91
2023-04-27T07:41:34.621Z,506.91
2023-04-27T07:41:45.687Z,506.87
2023-04-27T07:41:57.658Z,506.95
2023-04-27T07:42:09.663Z,506.97
2023-04-27T07:42:21.637Z,507.01
2023-04-27T07:42:32.597Z,506.98
2023-04-27T07:42:43.667Z,506.98
2023-04-27T07:42:55.668Z,506.92
2023-04-27T07:43:07.648Z,506.95
2023-04-27T07:43:18.600Z,506.98
2023-04-27T07:43:29.732Z,507.05
2023-04-27T07:43:41.622Z,507.06
2023-04-27T07:43:52.700Z,507.03
2023-04-27T07:44:04.690Z,507.04
2023-04-27T07:44:16.669Z,507.04
2023-04-27T07:44:28.639Z,507.03
2023-04-27T07:44:39.608Z,507.03
2023-04-27T07:44:50.666Z,506.97
2023-04-27T07:45:01.678Z,506.99
2023-04-27T07:45:13.652Z,507.02
2023-04-27T07:45:25.685Z,506.98
2023-04-27T07:45:36.676Z,506.98
2023-04-27T07:45:48.683Z,506.96
2023-04-27T07:45:59.708Z,506.88
2023-04-27T07:46:11.761Z,506.94
2023-04-27T07:46:23.826Z,506.92
2023-04-27T07:46:35.666Z,506.87
2023-04-27T07:46:47.642Z,506.92
2023-04-27T07:46:59.632Z,506.93
2023-04-27T07:47:10.729Z,506.93
2023-04-27T07:47:21.607Z,506.96
2023-04-27T07:47:32.678Z,506.95
2023-04-27T07:47:44.748Z,506.97
2023-04-27T07:47:58.720Z,506.97
2023-04-27T07:48:08.759Z,506.98
2023-04-27T07:48:20.729Z,506.96
2023-04-27T07:48:31.690Z,506.95
2023-04-27T07:48:43.658Z,506.94
2023-04-27T07:48:55.617Z,506.94
2023-04-27T07:49:06.688Z,506.93
2023-04-27T07:49:18.663Z,506.92
2023-04-27T07:49:30.630Z,506.86
2023-04-27T07:49:42.643Z,506.82
2023-04-27T07:49:53.592Z,506.76
2023-04-27T07:50:04.657Z,506.74
2023-04-27T07:50:16.634Z,506.74
2023-04-27T07:50:28.631Z,506.70
2023-04-27T07:50:39.685Z,506.69
2023-04-27T07:50:51.657Z,506.61
2023-04-27T07:51:03.652Z,506.44
2023-04-27T07:51:14.669Z,506.67
2023-04-27T07:51:26.680Z,506.52
2023-04-27T07:51:38.663Z,506.43
2023-04-27T07:51:50.620Z,506.38
2023-04-27T07:52:01.691Z,506.30
2023-04-27T07:52:13.689Z,506.26
2023-04-27T07:52:25.623Z,506.21
2023-04-27T07:52:36.686Z,506.20
2023-04-27T07:52:48.657Z,506.11
2023-04-27T07:53:00.630Z,506.06
2023-04-27T07:53:11.690Z,506.05
2023-04-27T07:53:23.645Z,506.07
2023-04-27T07:53:34.667Z,506.05
2023-04-27T07:53:47.786Z,505.96
2023-04-27T07:53:58.598Z,505.94
2023-04-27T07:54:09.660Z,505.93
2023-04-27T07:54:21.651Z,505.94
2023-04-27T07:54:33.623Z,505.90
2023-04-27T07:54:44.683Z,505.87
2023-04-27T07:54:56.680Z,505.82
2023-04-27T07:55:08.660Z,505.78
2023-04-27T07:55:20.644Z,505.74
2023-04-27T07:55:32.618Z,505.77
2023-04-27T07:55:43.592Z,505.70
2023-04-27T07:55:54.679Z,505.68
2023-04-27T07:56:06.626Z,505.65
2023-04-27T07:56:17.677Z,505.60
2023-04-27T07:56:29.648Z,505.59
2023-04-27T07:56:41.641Z,505.59
2023-04-27T07:56:53.621Z,505.76
2023-04-27T07:57:04.673Z,505.89
2023-04-27T07:57:16.653Z,505.79
2023-04-27T07:57:27.600Z,505.71
2023-04-27T07:57:38.646Z,505.77
2023-04-27T07:57:50.646Z,505.80
2023-04-27T07:58:02.627Z,505.85
2023-04-27T07:58:13.699Z,505.81